createdAt,value
2022-10-17T00:00:12.206Z,13.10
2022-10-17T00:03:01.139Z,11.10
2022-10-17T00:05:30.321Z,12.10
2022-10-17T00:07:59.044Z,12.10
2022-10-17T00:10:27.804Z,12.40
2022-10-17T00:12:56.467Z,12.10
2022-10-17T00:15:27.950Z,12.50
2022-10-17T00:17:56.842Z,11.90
2022-10-17T00:20:26.047Z,12.40
2022-10-17T00:22:57.788Z,12.40
2022-10-17T00:25:26.485Z,10.80
2022-10-17T00:27:55.080Z,10.20
2022-10-17T00:30:23.668Z,9.80
2022-10-17T00:32:52.684Z,10.00
2022-10-17T00:35:21.651Z,10.30
2022-10-17T00:37:50.621Z,11.50
2022-10-17T00:40:19.593Z,11.20
2022-10-17T00:42:51.431Z,11.60
2022-10-17T00:45:31.776Z,11.70
2022-10-17T00:48:08.660Z,12.00
2022-10-17T00:50:40.978Z,12.30
2022-10-17T00:53:10.415Z,13.00
2022-10-17T00:55:48.992Z,12.90
2022-10-17T00:58:19.452Z,13.20
2022-10-17T01:00:48.897Z,14.00
2022-10-17T01:03:17.611Z,13.50
2022-10-17T01:05:46.940Z,14.10
2022-10-17T01:08:17.742Z,13.80
2022-10-17T01:11:13.465Z,14.30
2022-10-17T01:13:58.729Z,12.50
2022-10-17T01:20:18.743Z,13.10
2022-10-17T01:22:55.432Z,11.70
2022-10-17T01:25:54.229Z,11.60
2022-10-17T01:28:56.419Z,12.70
2022-10-17T01:31:51.616Z,12.80
2022-10-17T01:34:59.384Z,12.20
2022-10-17T01:37:38.048Z,12.40
2022-10-17T01:40:38.840Z,12.90
2022-10-17T01:43:26.947Z,13.00
2022-10-17T01:46:07.589Z,12.60
2022-10-17T01:48:40.375Z,11.80
2022-10-17T01:51:21.925Z,13.00
2022-10-17T01:54:00.891Z,11.90
2022-10-17T01:56:33.245Z,12.80
2022-10-17T01:59:11.735Z,13.30
2022-10-17T02:01:44.160Z,13.60
2022-10-17T02:06:44.389Z,13.30
2022-10-17T02:09:28.308Z,14.20
2022-10-17T02:12:27.742Z,11.80
2022-10-17T02:15:27.327Z,11.90
2022-10-17T02:18:16.060Z,10.80
2022-10-17T02:21:14.973Z,10.50
2022-10-17T02:24:01.608Z,9.40
2022-10-17T02:26:51.715Z,10.10
2022-10-17T02:29:34.890Z,10.80
2022-10-17T02:32:10.374Z,10.50
2022-10-17T02:34:50.900Z,11.00
2022-10-17T02:40:43.595Z,11.30
2022-10-17T02:43:13.439Z,10.60
2022-10-17T02:45:42.276Z,11.20
2022-10-17T02:48:47.503Z,10.60
2022-10-17T02:51:42.767Z,8.00
2022-10-17T02:54:40.291Z,9.90
2022-10-17T02:57:19.302Z,9.90
2022-10-17T02:59:49.424Z,10.70
2022-10-17T03:02:18.667Z,11.20
2022-10-17T03:18:30.784Z,13.40
2022-10-17T03:21:01.396Z,13.50
2022-10-17T03:23:30.507Z,11.30
2022-10-17T03:26:03.097Z,12.20
2022-10-17T03:28:31.849Z,12.50
2022-10-17T03:31:06.512Z,12.60
2022-10-17T03:33:37.630Z,13.50
2022-10-17T03:36:16.578Z,19.00
2022-10-17T03:38:46.678Z,16.50
2022-10-17T03:41:15.549Z,16.10
2022-10-17T03:43:44.556Z,13.20
2022-10-17T03:46:14.129Z,15.30
2022-10-17T03:48:43.038Z,12.80
2022-10-17T03:51:12.522Z,13.50
2022-10-17T03:53:47.876Z,13.00
2022-10-17T03:56:24.184Z,12.80
2022-10-17T03:59:06.317Z,12.30
2022-10-17T04:01:39.467Z,12.40
2022-10-17T04:04:10.315Z,13.70
2022-10-17T04:06:39.324Z,13.40
2022-10-17T04:09:08.613Z,12.20
2022-10-17T04:11:49.122Z,10.50
2022-10-17T04:14:21.485Z,10.40
2022-10-17T04:16:54.859Z,13.30
2022-10-17T04:20:02.533Z,19.00
2022-10-17T04:22:32.652Z,12.80
2022-10-17T04:25:03.001Z,13.80
2022-10-17T04:28:20.289Z,12.00
2022-10-17T04:31:41.270Z,12.50
2022-10-17T04:34:55.303Z,13.10
2022-10-17T04:37:25.747Z,12.60
2022-10-17T04:39:56.050Z,12.60
2022-10-17T04:42:25.013Z,12.60
2022-10-17T04:44:58.033Z,16.30
2022-10-17T05:15:18.901Z,13.40
2022-10-17T05:17:47.829Z,11.60
2022-10-17T05:20:23.060Z,14.80
2022-10-17T05:22:51.470Z,14.50
2022-10-17T05:25:21.480Z,11.20
2022-10-17T05:27:51.108Z,12.10
2022-10-17T05:30:19.355Z,11.90
2022-10-17T05:49:48.525Z,10.80
2022-10-17T05:52:34.633Z,10.50
2022-10-17T05:55:10.781Z,11.80
2022-10-17T05:57:40.115Z,10.80
2022-10-17T06:00:13.164Z,11.20
2022-10-17T06:02:46.356Z,11.50
2022-10-17T06:05:17.078Z,11.00
2022-10-17T06:07:45.429Z,12.30
2022-10-17T06:10:18.357Z,11.30
2022-10-17T06:12:46.403Z,12.30
2022-10-17T06:35:01.045Z,13.90
2022-10-17T06:37:36.513Z,15.50
2022-10-17T06:40:11.990Z,13.90
2022-10-17T06:42:41.235Z,14.20
2022-10-17T06:45:24.358Z,13.50
2022-10-17T06:48:36.377Z,14.00
2022-10-17T06:51:31.613Z,13.80
2022-10-17T07:31:09.459Z,13.50
2022-10-17T07:33:41.261Z,14.30
2022-10-17T07:36:09.655Z,11.80
2022-10-17T07:38:38.539Z,13.60
2022-10-17T07:41:09.799Z,10.90
2022-10-17T07:43:38.691Z,11.20
2022-10-17T07:46:06.652Z,10.80
2022-10-17T07:48:35.332Z,11.20
2022-10-17T07:51:06.113Z,12.00
2022-10-17T07:53:46.443Z,10.70
2022-10-17T07:56:17.736Z,12.80
2022-10-17T07:58:48.576Z,11.90
2022-10-17T08:01:17.482Z,12.40
2022-10-17T08:03:48.962Z,11.50
2022-10-17T08:06:18.302Z,12.00
2022-10-17T08:08:47.433Z,13.70
2022-10-17T08:11:16.010Z,12.00
2022-10-17T08:13:43.846Z,12.20
2022-10-17T08:16:47.226Z,12.00
2022-10-17T08:19:32.612Z,12.50
2022-10-17T08:22:01.868Z,12.30
2022-10-17T08:24:29.631Z,12.20
2022-10-17T08:26:57.937Z,12.20
2022-10-17T08:29:25.735Z,12.80
2022-10-17T08:31:58.540Z,11.80
2022-10-17T08:34:28.951Z,11.70
2022-10-17T08:36:56.937Z,11.10
2022-10-17T08:39:24.914Z,11.60
2022-10-17T08:42:10.927Z,11.50
2022-10-17T08:58:00.045Z,8.80
2022-10-17T09:00:33.864Z,8.70
2022-10-17T09:03:40.004Z,8.90
2022-10-17T09:06:46.772Z,8.90
2022-10-17T09:09:46.823Z,7.40
2022-10-17T09:17:00.333Z,6.70
2022-10-17T09:19:41.164Z,7.50
2022-10-17T09:22:22.318Z,7.10
2022-10-17T09:25:10.422Z,7.60
2022-10-17T09:27:47.193Z,7.30
2022-10-17T09:30:45.925Z,6.40
2022-10-17T09:33:56.379Z,7.50
2022-10-17T09:36:39.626Z,6.60
2022-10-17T09:39:32.583Z,5.90
2022-10-17T09:42:04.497Z,6.70
2022-10-17T09:45:26.456Z,6.00
2022-10-17T09:48:45.712Z,6.10
2022-10-17T09:51:25.867Z,6.90
2022-10-17T09:54:05.751Z,5.80
2022-10-17T09:57:07.844Z,5.80
2022-10-17T10:00:03.117Z,5.20
2022-10-17T10:06:34.887Z,5.00
2022-10-17T10:09:26.031Z,4.80
2022-10-17T10:23:17.571Z,5.50
2022-10-17T10:42:47.450Z,5.30
2022-10-17T10:45:46.470Z,5.20
2022-10-17T10:48:24.825Z,4.30
2022-10-17T10:51:24.669Z,4.20
2022-10-17T10:54:20.200Z,3.70
2022-10-17T10:57:08.309Z,3.80
2022-10-17T10:59:51.251Z,4.60
2022-10-17T11:02:44.353Z,3.60
2022-10-17T11:05:28.071Z,3.70
2022-10-17T11:08:14.939Z,2.70
2022-10-17T11:11:23.872Z,3.20
2022-10-17T11:17:41.639Z,3.10
2022-10-17T11:20:09.566Z,3.70
2022-10-17T11:22:55.459Z,3.20
2022-10-17T11:25:40.734Z,3.50
2022-10-17T11:28:25.387Z,3.60
2022-10-17T11:53:44.002Z,3.60
2022-10-17T11:56:53.603Z,3.50
2022-10-17T12:00:07.652Z,3.40
2022-10-17T12:02:50.454Z,3.40
2022-10-17T12:06:30.233Z,3.50
2022-10-17T12:09:32.049Z,3.80
2022-10-17T12:12:04.347Z,3.70
2022-10-17T12:14:46.473Z,4.20
